sensor_id;sensor_type;location;lat;lon;timestamp;temperature;humidity
5556;DHT22;2801;50.972;7.856;2022-08-01T00:00:12;18.20;99.90
5556;DHT22;2801;50.972;7.856;2022-08-01T00:02:39;18.20;99.90
5556;DHT22;2801;50.972;7.856;2022-08-01T00:05:08;18.20;99.90
5556;DHT22;2801;50.972;7.856;2022-08-01T00:07:36;18.20;99.90
5556;DHT22;2801;50.972;7.856;2022-08-01T00:10:09;18.20;99.90
5556;DHT22;2801;50.972;7.856;2022-08-01T00:12:37;18.10;99.90
5556;DHT22;2801;50.972;7.856;2022-08-01T00:15:07;18.10;99.90
5556;DHT22;2801;50.972;7.856;2022-08-01T00:17:36;18.10;99.90
5556;DHT22;2801;50.972;7.856;2022-08-01T00:20:05;18.10;99.90
5556;DHT22;2801;50.972;7.856;2022-08-01T00:22:34;18.10;99.90
5556;DHT22;2801;50.972;7.856;2022-08-01T00:25:02;18.10;99.90
5556;DHT22;2801;50.972;7.856;2022-08-01T00:27:31;18.20;99.90
5556;DHT22;2801;50.972;7.856;2022-08-01T00:30:03;18.20;99.90
5556;DHT22;2801;50.972;7.856;2022-08-01T00:32:38;18.20;99.90
5556;DHT22;2801;50.972;7.856;2022-08-01T00:35:05;18.10;99.90
5556;DHT22;2801;50.972;7.856;2022-08-01T00:37:32;18.10;99.90
5556;DHT22;2801;50.972;7.856;2022-08-01T00:39:59;18.20;99.90
5556;DHT22;2801;50.972;7.856;2022-08-01T00:42:26;18.20;99.90
5556;DHT22;2801;50.972;7.856;2022-08-01T00:44:53;18.20;99.90
5556;DHT22;2801;50.972;7.856;2022-08-01T00:47:19;18.20;99.90
5556;DHT22;2801;50.972;7.856;2022-08-01T00:49:46;18.20;99.90
5556;DHT22;2801;50.972;7.856;2022-08-01T00:52:13;18.20;99.90
5556;DHT22;2801;50.972;7.856;2022-08-01T00:54:40;18.20;99.90
5556;DHT22;2801;50.972;7.856;2022-08-01T00:57:07;18.20;99.90
5556;DHT22;2801;50.972;7.856;2022-08-01T00:59:36;18.20;99.90
5556;DHT22;2801;50.972;7.856;2022-08-01T01:02:05;18.20;99.90
5556;DHT22;2801;50.972;7.856;2022-08-01T01:04:42;18.20;99.90
5556;DHT22;2801;50.972;7.856;2022-08-01T01:07:17;18.10;99.90
5556;DHT22;2801;50.972;7.856;2022-08-01T01:09:56;18.10;99.90
5556;DHT22;2801;50.972;7.856;2022-08-01T01:12:42;18.10;99.90
5556;DHT22;2801;50.972;7.856;2022-08-01T01:15:22;18.10;99.90
5556;DHT22;2801;50.972;7.856;2022-08-01T01:18:17;18.10;99.90
5556;DHT22;2801;50.972;7.856;2022-08-01T01:29:41;18.00;99.90
5556;DHT22;2801;50.972;7.856;2022-08-01T01:32:39;17.90;99.90
5556;DHT22;2801;50.972;7.856;2022-08-01T01:35:36;17.90;99.90
5556;DHT22;2801;50.972;7.856;2022-08-01T01:38:12;17.80;99.90
5556;DHT22;2801;50.972;7.856;2022-08-01T01:40:43;17.80;99.90
5556;DHT22;2801;50.972;7.856;2022-08-01T01:43:13;17.70;99.90
5556;DHT22;2801;50.972;7.856;2022-08-01T01:45:43;17.70;99.90
5556;DHT22;2801;50.972;7.856;2022-08-01T01:48:15;17.60;99.90
5556;DHT22;2801;50.972;7.856;2022-08-01T01:50:48;17.60;99.90
5556;DHT22;2801;50.972;7.856;2022-08-01T01:53:19;17.60;99.90
5556;DHT22;2801;50.972;7.856;2022-08-01T01:55:52;17.60;99.90
5556;DHT22;2801;50.972;7.856;2022-08-01T01:58:22;17.60;99.90
5556;DHT22;2801;50.972;7.856;2022-08-01T02:00:52;17.60;99.90
5556;DHT22;2801;50.972;7.856;2022-08-01T02:03:24;17.50;99.90
5556;DHT22;2801;50.972;7.856;2022-08-01T02:05:53;17.50;99.90
5556;DHT22;2801;50.972;7.856;2022-08-01T02:08:22;17.60;99.90
5556;DHT22;2801;50.972;7.856;2022-08-01T02:10:52;17.60;99.90
5556;DHT22;2801;50.972;7.856;2022-08-01T02:13:40;17.60;99.90
5556;DHT22;2801;50.972;7.856;2022-08-01T02:16:09;17.60;99.90
5556;DHT22;2801;50.972;7.856;2022-08-01T02:18:39;17.60;99.90
5556;DHT22;2801;50.972;7.856;2022-08-01T02:21:09;17.60;99.90
5556;DHT22;2801;50.972;7.856;2022-08-01T02:23:40;17.60;99.90
5556;DHT22;2801;50.972;7.856;2022-08-01T02:26:11;17.60;99.90
5556;DHT22;2801;50.972;7.856;2022-08-01T02:28:57;17.60;99.90
5556;DHT22;2801;50.972;7.856;2022-08-01T02:31:31;17.60;99.90
5556;DHT22;2801;50.972;7.856;2022-08-01T02:34:04;17.60;99.90
5556;DHT22;2801;50.972;7.856;2022-08-01T02:36:35;17.50;99.90
5556;DHT22;2801;50.972;7.856;2022-08-01T02:39:08;17.50;99.90
5556;DHT22;2801;50.972;7.856;2022-08-01T02:41:42;17.50;99.90
5556;DHT22;2801;50.972;7.856;2022-08-01T02:44:26;17.60;99.90
5556;DHT22;2801;50.972;7.856;2022-08-01T02:47:00;17.60;99.90
5556;DHT22;2801;50.972;7.856;2022-08-01T02:49:35;17.60;99.90
5556;DHT22;2801;50.972;7.856;2022-08-01T02:52:07;17.50;99.90
5556;DHT22;2801;50.972;7.856;2022-08-01T02:54:36;17.50;99.90
5556;DHT22;2801;50.972;7.856;2022-08-01T02:57:06;17.50;99.90
5556;DHT22;2801;50.972;7.856;2022-08-01T02:59:40;17.50;99.90
5556;DHT22;2801;50.972;7.856;2022-08-01T03:02:10;17.50;99.90
5556;DHT22;2801;50.972;7.856;2022-08-01T03:04:40;17.50;99.90
5556;DHT22;2801;50.972;7.856;2022-08-01T03:07:10;17.50;99.90
5556;DHT22;2801;50.972;7.856;2022-08-01T03:09:44;17.50;99.90
5556;DHT22;2801;50.972;7.856;2022-08-01T03:12:19;17.50;99.90
5556;DHT22;2801;50.972;7.856;2022-08-01T03:14:52;17.50;99.90
5556;DHT22;2801;50.972;7.856;2022-08-01T03:17:24;17.50;99.90
5556;DHT22;2801;50.972;7.856;2022-08-01T03:19:54;17.50;99.90
5556;DHT22;2801;50.972;7.856;2022-08-01T03:22:25;17.60;99.90
5556;DHT22;2801;50.972;7.856;2022-08-01T03:24:56;17.60;99.90
5556;DHT22;2801;50.972;7.856;2022-08-01T03:27:25;17.60;99.90
5556;DHT22;2801;50.972;7.856;2022-08-01T03:29:55;17.60;99.90
5556;DHT22;2801;50.972;7.856;2022-08-01T03:32:25;17.60;99.90
5556;DHT22;2801;50.972;7.856;2022-08-01T03:34:54;17.70;99.90
5556;DHT22;2801;50.972;7.856;2022-08-01T03:37:34;17.60;99.90
5556;DHT22;2801;50.972;7.856;2022-08-01T03:40:30;17.70;99.90
5556;DHT22;2801;50.972;7.856;2022-08-01T03:43:06;17.70;99.90
5556;DHT22;2801;50.972;7.856;2022-08-01T03:45:49;17.70;99.90
5556;DHT22;2801;50.972;7.856;2022-08-01T03:48:19;17.70;99.90
5556;DHT22;2801;50.972;7.856;2022-08-01T03:50:53;17.60;99.90
5556;DHT22;2801;50.972;7.856;2022-08-01T03:53:26;17.70;99.90
5556;DHT22;2801;50.972;7.856;2022-08-01T03:55:59;17.70;99.90
5556;DHT22;2801;50.972;7.856;2022-08-01T03:58:29;17.70;99.90
5556;DHT22;2801;50.972;7.856;2022-08-01T04:01:00;17.70;99.90
5556;DHT22;2801;50.972;7.856;2022-08-01T04:03:28;17.70;99.90
5556;DHT22;2801;50.972;7.856;2022-08-01T04:05:55;17.70;99.90
5556;DHT22;2801;50.972;7.856;2022-08-01T04:08:22;17.70;99.90
5556;DHT22;2801;50.972;7.856;2022-08-01T04:10:55;17.60;99.90
5556;DHT22;2801;50.972;7.856;2022-08-01T04:13:22;17.60;99.90
5556;DHT22;2801;50.972;7.856;2022-08-01T04:15:49;17.60;99.90
5556;DHT22;2801;50.972;7.856;2022-08-01T04:18:15;17.60;99.90
5556;DHT22;2801;50.972;7.856;2022-08-01T04:20:42;17.60;99.90
5556;DHT22;2801;50.972;7.856;2022-08-01T04:23:10;17.60;99.90
5556;DHT22;2801;50.972;7.856;2022-08-01T04:25:38;17.50;99.90
5556;DHT22;2801;50.972;7.856;2022-08-01T04:28:10;17.50;99.90
5556;DHT22;2801;50.972;7.856;2022-08-01T04:30:44;17.60;99.90
5556;DHT22;2801;50.972;7.856;2022-08-01T04:33:14;17.50;99.90
5556;DHT22;2801;50.972;7.856;2022-08-01T04:35:45;17.50;99.90
5556;DHT22;2801;50.972;7.856;2022-08-01T04:38:31;17.50;99.90
5556;DHT22;2801;50.972;7.856;2022-08-01T04:41:00;17.50;99.90
5556;DHT22;2801;50.972;7.856;2022-08-01T04:43:36;17.50;99.90
5556;DHT22;2801;50.972;7.856;2022-08-01T04:46:03;17.60;99.90
5556;DHT22;2801;50.972;7.856;2022-08-01T04:48:34;17.50;99.90
5556;DHT22;2801;50.972;7.856;2022-08-01T04:51:04;17.60;99.90
5556;DHT22;2801;50.972;7.856;2022-08-01T04:53:31;17.60;99.90
5556;DHT22;2801;50.972;7.856;2022-08-01T04:55:58;17.60;99.90
5556;DHT22;2801;50.972;7.856;2022-08-01T04:58:25;17.60;99.90
5556;DHT22;2801;50.972;7.856;2022-08-01T05:00:52;17.60;99.90
5556;DHT22;2801;50.972;7.856;2022-08-01T05:03:19;17.60;99.90
5556;DHT22;2801;50.972;7.856;2022-08-01T05:05:46;17.60;99.90
5556;DHT22;2801;50.972;7.856;2022-08-01T05:08:13;17.70;99.90
5556;DHT22;2801;50.972;7.856;2022-08-01T05:10:40;17.70;99.90
5556;DHT22;2801;50.972;7.856;2022-08-01T05:13:06;17.70;99.90
5556;DHT22;2801;50.972;7.856;2022-08-01T05:15:35;17.70;99.90
5556;DHT22;2801;50.972;7.856;2022-08-01T05:18:05;17.70;99.90
5556;DHT22;2801;50.972;7.856;2022-08-01T05:20:35;17.80;99.90
5556;DHT22;2801;50.972;7.856;2022-08-01T05:23:06;17.80;99.90
5556;DHT22;2801;50.972;7.856;2022-08-01T05:25:37;17.90;99.90
5556;DHT22;2801;50.972;7.856;2022-08-01T05:28:23;17.90;99.90
5556;DHT22;2801;50.972;7.856;2022-08-01T05:30:49;17.90;99.90
5556;DHT22;2801;50.972;7.856;2022-08-01T05:33:16;18.00;99.90
5556;DHT22;2801;50.972;7.856;2022-08-01T05:35:43;18.00;99.90
5556;DHT22;2801;50.972;7.856;2022-08-01T05:38:15;18.00;99.90
5556;DHT22;2801;50.972;7.856;2022-08-01T05:40:42;18.10;99.90
5556;DHT22;2801;50.972;7.856;2022-08-01T05:43:08;18.20;99.90
5556;DHT22;2801;50.972;7.856;2022-08-01T05:45:35;18.20;99.90
5556;DHT22;2801;50.972;7.856;2022-08-01T05:48:03;18.30;99.90
5556;DHT22;2801;50.972;7.856;2022-08-01T05:50:29;18.30;99.90
5556;DHT22;2801;50.972;7.856;2022-08-01T05:52:56;18.30;99.90
5556;DHT22;2801;50.972;7.856;2022-08-01T05:55:23;18.30;99.90
5556;DHT22;2801;50.972;7.856;2022-08-01T05:57:50;18.40;99.90
5556;DHT22;2801;50.972;7.856;2022-08-01T06:00:17;18.40;99.90
5556;DHT22;2801;50.972;7.856;2022-08-01T06:02:44;18.40;99.90
5556;DHT22;2801;50.972;7.856;2022-08-01T06:05:11;18.40;99.90
5556;DHT22;2801;50.972;7.856;2022-08-01T06:07:39;18.30;99.90
5556;DHT22;2801;50.972;7.856;2022-08-01T06:10:07;18.30;99.90
5556;DHT22;2801;50.972;7.856;2022-08-01T06:12:36;18.30;99.90
5556;DHT22;2801;50.972;7.856;2022-08-01T06:15:04;18.30;99.90
5556;DHT22;2801;50.972;7.856;2022-08-01T06:17:32;18.40;99.90
5556;DHT22;2801;50.972;7.856;2022-08-01T06:19:59;18.40;99.90
5556;DHT22;2801;50.972;7.856;2022-08-01T06:22:26;18.50;99.90
5556;DHT22;2801;50.972;7.856;2022-08-01T06:24:53;18.50;99.90
5556;DHT22;2801;50.972;7.856;2022-08-01T06:27:20;18.40;99.90
5556;DHT22;2801;50.972;7.856;2022-08-01T06:29:48;18.40;99.90
5556;DHT22;2801;50.972;7.856;2022-08-01T06:32:20;18.50;99.90
5556;DHT22;2801;50.972;7.856;2022-08-01T06:34:54;18.60;99.90
5556;DHT22;2801;50.972;7.856;2022-08-01T06:37:22;18.60;99.90
5556;DHT22;2801;50.972;7.856;2022-08-01T06:39:49;18.60;99.90
5556;DHT22;2801;50.972;7.856;2022-08-01T06:42:16;18.60;99.90
5556;DHT22;2801;50.972;7.856;2022-08-01T06:44:44;18.60;99.90
5556;DHT22;2801;50.972;7.856;2022-08-01T06:47:11;18.60;99.90
5556;DHT22;2801;50.972;7.856;2022-08-01T06:49:38;18.60;99.90
5556;DHT22;2801;50.972;7.856;2022-08-01T06:52:05;18.60;99.90
5556;DHT22;2801;50.972;7.856;2022-08-01T06:54:32;18.60;99.90
5556;DHT22;2801;50.972;7.856;2022-08-01T06:56:59;18.60;99.90
5556;DHT22;2801;50.972;7.856;2022-08-01T06:59:26;18.50;99.90
5556;DHT22;2801;50.972;7.856;2022-08-01T07:01:53;18.40;99.90
5556;DHT22;2801;50.972;7.856;2022-08-01T07:04:20;18.30;99.90
5556;DHT22;2801;50.972;7.856;2022-08-01T07:06:47;18.30;99.90
5556;DHT22;2801;50.972;7.856;2022-08-01T07:09:13;18.30;99.90
5556;DHT22;2801;50.972;7.856;2022-08-01T07:11:40;18.40;99.90
5556;DHT22;2801;50.972;7.856;2022-08-01T07:14:07;18.40;99.90
5556;DHT22;2801;50.972;7.856;2022-08-01T07:16:34;18.40;99.90
5556;DHT22;2801;50.972;7.856;2022-08-01T07:19:02;18.50;99.90
5556;DHT22;2801;50.972;7.856;2022-08-01T07:21:29;18.60;99.90
5556;DHT22;2801;50.972;7.856;2022-08-01T07:24:08;18.80;99.90
5556;DHT22;2801;50.972;7.856;2022-08-01T07:26:44;18.80;99.90
5556;DHT22;2801;50.972;7.856;2022-08-01T07:29:29;18.90;99.90
5556;DHT22;2801;50.972;7.856;2022-08-01T07:31:57;19.10;99.90
5556;DHT22;2801;50.972;7.856;2022-08-01T07:34:24;19.20;99.90
5556;DHT22;2801;50.972;7.856;2022-08-01T07:36:52;19.30;99.90
5556;DHT22;2801;50.972;7.856;2022-08-01T07:39:19;19.30;99.90
5556;DHT22;2801;50.972;7.856;2022-08-01T07:41:47;19.50;99.90
5556;DHT22;2801;50.972;7.856;2022-08-01T07:44:32;19.80;99.90
5556;DHT22;2801;50.972;7.856;2022-08-01T07:46:59;20.10;99.90
5556;DHT22;2801;50.972;7.856;2022-08-01T07:49:26;20.20;99.90
5556;DHT22;2801;50.972;7.856;2022-08-01T07:51:53;20.50;99.90
5556;DHT22;2801;50.972;7.856;2022-08-01T07:54:31;20.70;99.90
5556;DHT22;2801;50.972;7.856;2022-08-01T07:57:01;20.90;99.90
5556;DHT22;2801;50.972;7.856;2022-08-01T07:59:29;20.90;99.90
5556;DHT22;2801;50.972;7.856;2022-08-01T08:01:56;20.90;99.90
5556;DHT22;2801;50.972;7.856;2022-08-01T08:04:24;20.90;99.90
5556;DHT22;2801;50.972;7.856;2022-08-01T08:06:51;20.90;99.90
5556;DHT22;2801;50.972;7.856;2022-08-01T08:09:20;20.90;99.90
5556;DHT22;2801;50.972;7.856;2022-08-01T08:11:47;20.90;99.90
5556;DHT22;2801;50.972;7.856;2022-08-01T08:14:15;20.80;99.90
5556;DHT22;2801;50.972;7.856;2022-08-01T08:16:43;20.70;99.90
5556;DHT22;2801;50.972;7.856;2022-08-01T08:19:10;20.60;99.90
5556;DHT22;2801;50.972;7.856;2022-08-01T08:21:38;20.60;99.90
5556;DHT22;2801;50.972;7.856;2022-08-01T08:24:06;20.60;99.90
5556;DHT22;2801;50.972;7.856;2022-08-01T08:26:53;20.80;99.90
5556;DHT22;2801;50.972;7.856;2022-08-01T08:29:22;21.10;99.90
5556;DHT22;2801;50.972;7.856;2022-08-01T08:31:49;21.40;99.90
5556;DHT22;2801;50.972;7.856;2022-08-01T08:34:19;21.50;99.90
5556;DHT22;2801;50.972;7.856;2022-08-01T08:36:48;21.70;99.90
5556;DHT22;2801;50.972;7.856;2022-08-01T08:39:16;21.60;99.90
5556;DHT22;2801;50.972;7.856;2022-08-01T08:41:46;21.70;99.90
5556;DHT22;2801;50.972;7.856;2022-08-01T08:44:16;21.80;99.90
5556;DHT22;2801;50.972;7.856;2022-08-01T08:46:48;21.90;99.90
5556;DHT22;2801;50.972;7.856;2022-08-01T08:49:23;21.80;99.90
5556;DHT22;2801;50.972;7.856;2022-08-01T08:51:52;21.70;99.90
5556;DHT22;2801;50.972;7.856;2022-08-01T08:54:24;21.50;99.90
5556;DHT22;2801;50.972;7.856;2022-08-01T08:56:58;21.30;99.90
5556;DHT22;2801;50.972;7.856;2022-08-01T08:59:26;21.20;99.90
5556;DHT22;2801;50.972;7.856;2022-08-01T09:01:54;21.20;99.90
5556;DHT22;2801;50.972;7.856;2022-08-01T09:04:22;21.30;99.90
5556;DHT22;2801;50.972;7.856;2022-08-01T09:06:53;21.40;99.90
5556;DHT22;2801;50.972;7.856;2022-08-01T09:09:22;21.50;99.90
5556;DHT22;2801;50.972;7.856;2022-08-01T09:11:50;21.60;99.90
5556;DHT22;2801;50.972;7.856;2022-08-01T09:14:25;21.60;99.90
5556;DHT22;2801;50.972;7.856;2022-08-01T09:17:08;21.80;99.90
5556;DHT22;2801;50.972;7.856;2022-08-01T09:19:39;22.10;99.90
5556;DHT22;2801;50.972;7.856;2022-08-01T09:22:10;22.20;99.90
5556;DHT22;2801;50.972;7.856;2022-08-01T09:24:39;22.30;99.90
5556;DHT22;2801;50.972;7.856;2022-08-01T09:27:19;22.40;99.90
5556;DHT22;2801;50.972;7.856;2022-08-01T09:29:48;22.40;99.90
5556;DHT22;2801;50.972;7.856;2022-08-01T09:32:29;22.30;99.90
5556;DHT22;2801;50.972;7.856;2022-08-01T09:35:24;22.30;99.90
5556;DHT22;2801;50.972;7.856;2022-08-01T09:38:19;22.30;99.90
5556;DHT22;2801;50.972;7.856;2022-08-01T09:40:59;22.50;99.90
5556;DHT22;2801;50.972;7.856;2022-08-01T09:43:28;22.90;99.90
5556;DHT22;2801;50.972;7.856;2022-08-01T09:45:57;23.10;99.90
5556;DHT22;2801;50.972;7.856;2022-08-01T09:48:25;23.20;99.90
5556;DHT22;2801;50.972;7.856;2022-08-01T09:50:57;23.10;99.90
5556;DHT22;2801;50.972;7.856;2022-08-01T09:53:48;23.10;99.90
5556;DHT22;2801;50.972;7.856;2022-08-01T09:56:20;23.10;99.90
5556;DHT22;2801;50.972;7.856;2022-08-01T09:58:56;23.20;99.90
5556;DHT22;2801;50.972;7.856;2022-08-01T10:01:44;23.20;99.90
5556;DHT22;2801;50.972;7.856;2022-08-01T10:04:19;23.20;99.90
5556;DHT22;2801;50.972;7.856;2022-08-01T10:06:49;23.20;99.90
5556;DHT22;2801;50.972;7.856;2022-08-01T10:09:30;23.30;99.90
5556;DHT22;2801;50.972;7.856;2022-08-01T10:12:07;23.50;99.90
5556;DHT22;2801;50.972;7.856;2022-08-01T10:14:42;23.70;99.90
5556;DHT22;2801;50.972;7.856;2022-08-01T10:17:16;23.70;99.90
5556;DHT22;2801;50.972;7.856;2022-08-01T10:19:46;23.70;99.90
5556;DHT22;2801;50.972;7.856;2022-08-01T10:22:17;23.70;99.90
5556;DHT22;2801;50.972;7.856;2022-08-01T10:24:47;23.70;99.90
5556;DHT22;2801;50.972;7.856;2022-08-01T10:27:17;23.60;99.90
5556;DHT22;2801;50.972;7.856;2022-08-01T10:29:55;23.50;99.90
5556;DHT22;2801;50.972;7.856;2022-08-01T10:32:39;23.70;99.90
5556;DHT22;2801;50.972;7.856;2022-08-01T10:35:16;23.80;99.90
5556;DHT22;2801;50.972;7.856;2022-08-01T10:38:04;23.90;99.90
5556;DHT22;2801;50.972;7.856;2022-08-01T10:40:36;23.80;99.90
5556;DHT22;2801;50.972;7.856;2022-08-01T10:43:05;23.60;99.90
5556;DHT22;2801;50.972;7.856;2022-08-01T10:45:33;23.60;99.90
5556;DHT22;2801;50.972;7.856;2022-08-01T10:48:09;23.60;99.90
5556;DHT22;2801;50.972;7.856;2022-08-01T10:50:48;23.80;99.90
5556;DHT22;2801;50.972;7.856;2022-08-01T10:53:21;24.30;99.90
5556;DHT22;2801;50.972;7.856;2022-08-01T10:56:08;24.60;99.90
5556;DHT22;2801;50.972;7.856;2022-08-01T10:58:41;24.80;99.90
5556;DHT22;2801;50.972;7.856;2022-08-01T11:01:23;25.10;99.90
5556;DHT22;2801;50.972;7.856;2022-08-01T11:09:21;26.20;99.90
5556;DHT22;2801;50.972;7.856;2022-08-01T11:12:10;26.20;99.90
5556;DHT22;2801;50.972;7.856;2022-08-01T11:17:36;26.40;99.90
5556;DHT22;2801;50.972;7.856;2022-08-01T11:20:11;26.20;99.90
5556;DHT22;2801;50.972;7.856;2022-08-01T11:28:32;25.10;99.90
5556;DHT22;2801;50.972;7.856;2022-08-01T11:41:40;25.00;99.90
5556;DHT22;2801;50.972;7.856;2022-08-01T11:44:16;25.20;99.90
5556;DHT22;2801;50.972;7.856;2022-08-01T11:46:57;25.50;99.90
5556;DHT22;2801;50.972;7.856;2022-08-01T11:49:53;25.60;99.90
5556;DHT22;2801;50.972;7.856;2022-08-01T11:52:26;25.80;99.90
5556;DHT22;2801;50.972;7.856;2022-08-01T11:57:31;25.70;99.90
5556;DHT22;2801;50.972;7.856;2022-08-01T12:00:13;25.80;99.90
5556;DHT22;2801;50.972;7.856;2022-08-01T12:02:53;25.80;99.90
5556;DHT22;2801;50.972;7.856;2022-08-01T12:05:27;25.60;99.90
5556;DHT22;2801;50.972;7.856;2022-08-01T12:07:58;25.40;99.90
5556;DHT22;2801;50.972;7.856;2022-08-01T12:10:28;25.40;99.90
5556;DHT22;2801;50.972;7.856;2022-08-01T12:13:00;25.40;99.90
5556;DHT22;2801;50.972;7.856;2022-08-01T12:15:36;25.50;99.90
5556;DHT22;2801;50.972;7.856;2022-08-01T12:18:05;25.70;99.90
5556;DHT22;2801;50.972;7.856;2022-08-01T12:20:37;25.70;99.90
5556;DHT22;2801;50.972;7.856;2022-08-01T12:23:19;25.80;99.90
5556;DHT22;2801;50.972;7.856;2022-08-01T12:25:51;25.80;99.90
5556;DHT22;2801;50.972;7.856;2022-08-01T12:28:18;25.90;99.90
5556;DHT22;2801;50.972;7.856;2022-08-01T12:30:47;25.90;99.90
5556;DHT22;2801;50.972;7.856;2022-08-01T12:33:18;25.90;99.90
5556;DHT22;2801;50.972;7.856;2022-08-01T12:35:46;26.10;99.90
5556;DHT22;2801;50.972;7.856;2022-08-01T12:38:18;26.40;99.90
5556;DHT22;2801;50.972;7.856;2022-08-01T12:40:48;26.30;99.90
5556;DHT22;2801;50.972;7.856;2022-08-01T12:43:22;26.20;99.90
5556;DHT22;2801;50.972;7.856;2022-08-01T12:45:58;26.00;99.90
5556;DHT22;2801;50.972;7.856;2022-08-01T12:48:27;25.80;99.90
5556;DHT22;2801;50.972;7.856;2022-08-01T12:50:56;25.50;99.80
5556;DHT22;2801;50.972;7.856;2022-08-01T12:53:26;25.20;99.90
5556;DHT22;2801;50.972;7.856;2022-08-01T12:56:08;25.20;99.90
5556;DHT22;2801;50.972;7.856;2022-08-01T12:58:39;25.40;99.90
5556;DHT22;2801;50.972;7.856;2022-08-01T13:01:10;25.60;99.90
5556;DHT22;2801;50.972;7.856;2022-08-01T13:03:40;25.90;99.90
5556;DHT22;2801;50.972;7.856;2022-08-01T13:06:14;26.20;99.90
5556;DHT22;2801;50.972;7.856;2022-08-01T13:08:44;26.40;99.90
5556;DHT22;2801;50.972;7.856;2022-08-01T13:11:13;26.60;99.90
5556;DHT22;2801;50.972;7.856;2022-08-01T13:13:48;26.60;99.60
5556;DHT22;2801;50.972;7.856;2022-08-01T13:16:22;26.20;98.80
5556;DHT22;2801;50.972;7.856;2022-08-01T13:19:04;25.80;99.10
5556;DHT22;2801;50.972;7.856;2022-08-01T13:21:32;25.50;99.60
5556;DHT22;2801;50.972;7.856;2022-08-01T13:24:29;25.30;99.70
5556;DHT22;2801;50.972;7.856;2022-08-01T13:27:01;25.30;99.20
5556;DHT22;2801;50.972;7.856;2022-08-01T13:29:37;25.20;99.90
5556;DHT22;2801;50.972;7.856;2022-08-01T13:32:18;25.20;99.80
5556;DHT22;2801;50.972;7.856;2022-08-01T13:35:10;25.10;99.80
5556;DHT22;2801;50.972;7.856;2022-08-01T13:37:41;25.10;99.60
5556;DHT22;2801;50.972;7.856;2022-08-01T13:40:10;25.20;99.90
5556;DHT22;2801;50.972;7.856;2022-08-01T13:42:38;25.30;99.90
5556;DHT22;2801;50.972;7.856;2022-08-01T13:45:06;25.50;99.90
5556;DHT22;2801;50.972;7.856;2022-08-01T13:47:39;25.70;99.90
5556;DHT22;2801;50.972;7.856;2022-08-01T13:50:26;25.80;99.90
5556;DHT22;2801;50.972;7.856;2022-08-01T13:52:54;25.90;99.80
5556;DHT22;2801;50.972;7.856;2022-08-01T13:55:20;25.80;99.40
5556;DHT22;2801;50.972;7.856;2022-08-01T13:57:47;25.70;99.20
5556;DHT22;2801;50.972;7.856;2022-08-01T14:00:14;25.60;99.90
5556;DHT22;2801;50.972;7.856;2022-08-01T14:02:42;25.80;99.90
5556;DHT22;2801;50.972;7.856;2022-08-01T14:05:08;26.10;99.90
5556;DHT22;2801;50.972;7.856;2022-08-01T14:07:35;26.20;99.70
5556;DHT22;2801;50.972;7.856;2022-08-01T14:10:04;26.20;99.00
5556;DHT22;2801;50.972;7.856;2022-08-01T14:12:47;26.00;98.70
5556;DHT22;2801;50.972;7.856;2022-08-01T14:15:15;25.60;98.80
5556;DHT22;2801;50.972;7.856;2022-08-01T14:18:02;25.50;99.30
5556;DHT22;2801;50.972;7.856;2022-08-01T14:20:32;25.40;99.00
5556;DHT22;2801;50.972;7.856;2022-08-01T14:23:00;25.30;99.00
5556;DHT22;2801;50.972;7.856;2022-08-01T14:25:28;25.40;99.00
5556;DHT22;2801;50.972;7.856;2022-08-01T14:28:15;25.60;98.70
5556;DHT22;2801;50.972;7.856;2022-08-01T14:30:42;25.90;98.70
5556;DHT22;2801;50.972;7.856;2022-08-01T14:33:10;25.90;99.20
5556;DHT22;2801;50.972;7.856;2022-08-01T14:35:37;25.70;98.70
5556;DHT22;2801;50.972;7.856;2022-08-01T14:38:24;25.80;98.90
5556;DHT22;2801;50.972;7.856;2022-08-01T14:40:59;25.90;99.00
5556;DHT22;2801;50.972;7.856;2022-08-01T14:43:26;26.00;98.60
5556;DHT22;2801;50.972;7.856;2022-08-01T14:46:00;26.10;98.00
5556;DHT22;2801;50.972;7.856;2022-08-01T14:48:27;26.20;98.70
5556;DHT22;2801;50.972;7.856;2022-08-01T14:50:56;26.40;97.80
5556;DHT22;2801;50.972;7.856;2022-08-01T14:53:23;26.60;97.00
5556;DHT22;2801;50.972;7.856;2022-08-01T14:55:51;26.70;96.10
5556;DHT22;2801;50.972;7.856;2022-08-01T14:58:17;26.90;96.20
5556;DHT22;2801;50.972;7.856;2022-08-01T15:00:44;26.90;95.40
5556;DHT22;2801;50.972;7.856;2022-08-01T15:03:11;26.90;94.80
5556;DHT22;2801;50.972;7.856;2022-08-01T15:05:39;26.90;94.70
5556;DHT22;2801;50.972;7.856;2022-08-01T15:08:06;26.90;95.10
5556;DHT22;2801;50.972;7.856;2022-08-01T15:10:33;27.00;95.30
5556;DHT22;2801;50.972;7.856;2022-08-01T15:13:00;27.10;95.00
5556;DHT22;2801;50.972;7.856;2022-08-01T15:15:28;27.40;95.30
5556;DHT22;2801;50.972;7.856;2022-08-01T15:17:56;27.30;94.60
5556;DHT22;2801;50.972;7.856;2022-08-01T15:20:23;27.10;94.60
5556;DHT22;2801;50.972;7.856;2022-08-01T15:22:51;26.70;94.90
5556;DHT22;2801;50.972;7.856;2022-08-01T15:25:19;26.40;95.10
5556;DHT22;2801;50.972;7.856;2022-08-01T15:27:47;26.00;95.00
5556;DHT22;2801;50.972;7.856;2022-08-01T15:30:14;25.80;95.60
5556;DHT22;2801;50.972;7.856;2022-08-01T15:32:41;25.80;96.00
5556;DHT22;2801;50.972;7.856;2022-08-01T15:35:08;25.80;96.50
5556;DHT22;2801;50.972;7.856;2022-08-01T15:37:36;26.00;96.20
5556;DHT22;2801;50.972;7.856;2022-08-01T15:40:09;26.00;96.00
5556;DHT22;2801;50.972;7.856;2022-08-01T15:42:38;25.90;96.00
5556;DHT22;2801;50.972;7.856;2022-08-01T15:45:06;25.80;96.30
5556;DHT22;2801;50.972;7.856;2022-08-01T15:47:38;25.70;95.90
5556;DHT22;2801;50.972;7.856;2022-08-01T15:50:06;25.60;95.80
5556;DHT22;2801;50.972;7.856;2022-08-01T15:52:33;25.50;95.90
5556;DHT22;2801;50.972;7.856;2022-08-01T15:55:00;25.50;95.80
5556;DHT22;2801;50.972;7.856;2022-08-01T15:57:29;25.50;95.10
5556;DHT22;2801;50.972;7.856;2022-08-01T15:59:56;25.50;95.40
5556;DHT22;2801;50.972;7.856;2022-08-01T16:02:23;25.50;95.50
5556;DHT22;2801;50.972;7.856;2022-08-01T16:04:50;25.60;95.60
5556;DHT22;2801;50.972;7.856;2022-08-01T16:07:17;25.50;95.40
5556;DHT22;2801;50.972;7.856;2022-08-01T16:09:44;25.40;95.40
5556;DHT22;2801;50.972;7.856;2022-08-01T16:12:11;25.20;95.60
5556;DHT22;2801;50.972;7.856;2022-08-01T16:14:38;25.00;95.70
5556;DHT22;2801;50.972;7.856;2022-08-01T16:17:04;24.90;96.10
5556;DHT22;2801;50.972;7.856;2022-08-01T16:19:31;24.80;96.40
5556;DHT22;2801;50.972;7.856;2022-08-01T16:21:58;24.80;96.90
5556;DHT22;2801;50.972;7.856;2022-08-01T16:24:25;24.80;97.10
5556;DHT22;2801;50.972;7.856;2022-08-01T16:26:55;24.70;97.10
5556;DHT22;2801;50.972;7.856;2022-08-01T16:29:22;24.80;97.30
5556;DHT22;2801;50.972;7.856;2022-08-01T16:31:51;24.70;97.20
5556;DHT22;2801;50.972;7.856;2022-08-01T16:34:29;24.60;97.00
5556;DHT22;2801;50.972;7.856;2022-08-01T16:36:56;24.50;97.60
5556;DHT22;2801;50.972;7.856;2022-08-01T16:39:22;24.40;97.90
5556;DHT22;2801;50.972;7.856;2022-08-01T16:41:50;24.20;98.60
5556;DHT22;2801;50.972;7.856;2022-08-01T16:44:24;24.20;99.20
5556;DHT22;2801;50.972;7.856;2022-08-01T16:47:00;24.10;99.40
5556;DHT22;2801;50.972;7.856;2022-08-01T16:49:31;24.00;99.70
5556;DHT22;2801;50.972;7.856;2022-08-01T16:51:58;23.80;99.90
5556;DHT22;2801;50.972;7.856;2022-08-01T16:54:25;23.70;99.90
5556;DHT22;2801;50.972;7.856;2022-08-01T16:56:53;23.70;99.90
5556;DHT22;2801;50.972;7.856;2022-08-01T16:59:35;23.60;99.90
5556;DHT22;2801;50.972;7.856;2022-08-01T17:02:08;23.50;99.90
5556;DHT22;2801;50.972;7.856;2022-08-01T17:04:36;23.40;99.90